createdAt,value
2023-05-14T00:01:18.000Z,7.5
2023-05-14T00:04:50.000Z,6.8
2023-05-14T00:08:23.000Z,7.2
2023-05-14T00:11:56.000Z,7.8
2023-05-14T00:15:28.000Z,6.8
2023-05-14T00:19:01.000Z,7.4
2023-05-14T00:22:34.000Z,7.2
2023-05-14T00:26:06.000Z,7.7
2023-05-14T00:28:57.000Z,7.2
2023-05-14T00:32:30.000Z,7
2023-05-14T00:36:03.000Z,7.4
2023-05-14T00:39:35.000Z,7.9
2023-05-14T00:43:08.000Z,7.7
2023-05-14T00:46:40.000Z,7.9
2023-05-14T00:50:13.000Z,7.7
2023-05-14T00:53:47.000Z,8
2023-05-14T00:57:19.000Z,7.9
2023-05-14T01:00:52.000Z,7.7
2023-05-14T01:04:25.000Z,7.9
2023-05-14T01:07:16.000Z,8.4
2023-05-14T01:10:48.000Z,7.8
2023-05-14T01:14:21.000Z,7.7
2023-05-14T01:17:54.000Z,8.6
2023-05-14T01:21:26.000Z,8.2
2023-05-14T01:24:59.000Z,7.9
2023-05-14T01:28:32.000Z,7.9
2023-05-14T01:32:04.000Z,8.2
2023-05-14T01:35:37.000Z,7.8
2023-05-14T01:39:10.000Z,8.1
2023-05-14T01:42:42.000Z,8.2
2023-05-14T01:45:34.000Z,8.3
2023-05-14T01:49:06.000Z,8.1
2023-05-14T01:52:39.000Z,8.3
2023-05-14T01:56:11.000Z,8.8
2023-05-14T01:59:44.000Z,7.7
2023-05-14T02:03:16.000Z,8.4
2023-05-14T02:06:49.000Z,8.2
2023-05-14T02:10:22.000Z,8.3
2023-05-14T02:13:54.000Z,8.8
2023-05-14T02:17:27.000Z,8.4
2023-05-14T02:21:00.000Z,9.3
2023-05-14T02:23:51.000Z,9.1
2023-05-14T02:27:24.000Z,9.3
2023-05-14T02:30:57.000Z,8.8
2023-05-14T02:34:29.000Z,9.4
2023-05-14T02:38:02.000Z,8.8
2023-05-14T02:41:34.000Z,8.9
2023-05-14T02:45:07.000Z,9.2
2023-05-14T02:48:40.000Z,8.8
2023-05-14T02:52:12.000Z,9.4
2023-05-14T02:55:45.000Z,9.6
2023-05-14T02:59:18.000Z,9.7
2023-05-14T03:02:10.000Z,9
2023-05-14T03:05:43.000Z,10.3
2023-05-14T03:09:16.000Z,10.4
2023-05-14T03:12:48.000Z,10.3
2023-05-14T03:16:21.000Z,10.5
2023-05-14T03:19:54.000Z,10.3
2023-05-14T03:23:27.000Z,10.5
2023-05-14T03:26:59.000Z,9.8
2023-05-14T03:30:32.000Z,10.5
2023-05-14T03:34:05.000Z,10
2023-05-14T03:37:37.000Z,11.1
2023-05-14T03:40:29.000Z,10.9
2023-05-14T03:44:01.000Z,11.3
2023-05-14T03:47:34.000Z,11.5
2023-05-14T03:51:07.000Z,10.9
2023-05-14T03:54:40.000Z,10.9
2023-05-14T03:58:12.000Z,11.4
2023-05-14T04:01:45.000Z,10.9
2023-05-14T04:05:18.000Z,9.9
2023-05-14T04:08:50.000Z,10.4
2023-05-14T04:12:23.000Z,10.8
2023-05-14T04:15:56.000Z,11.2
2023-05-14T04:18:47.000Z,10.5
2023-05-14T04:22:20.000Z,11.1
2023-05-14T04:25:52.000Z,11.1
2023-05-14T04:29:25.000Z,11.4
2023-05-14T04:32:58.000Z,11.2
2023-05-14T04:36:30.000Z,11.5
2023-05-14T04:40:03.000Z,9.8
2023-05-14T04:43:36.000Z,12
2023-05-14T04:47:08.000Z,10.6
2023-05-14T04:50:41.000Z,12.4
2023-05-14T04:54:13.000Z,12.7
2023-05-14T04:57:05.000Z,12
2023-05-14T05:00:37.000Z,11.6
2023-05-14T05:04:10.000Z,11
2023-05-14T05:07:43.000Z,11.4
2023-05-14T05:11:15.000Z,11.4
2023-05-14T05:14:48.000Z,13.6
2023-05-14T05:18:21.000Z,17.9
2023-05-14T05:21:53.000Z,16.2
2023-05-14T05:25:26.000Z,15.3
2023-05-14T05:28:59.000Z,13.9
2023-05-14T05:32:31.000Z,13.8
2023-05-14T05:35:22.000Z,14.4
2023-05-14T05:38:55.000Z,11.8
2023-05-14T05:42:28.000Z,12.3
2023-05-14T05:46:00.000Z,14.5
2023-05-14T05:49:33.000Z,14.7
2023-05-14T05:53:06.000Z,13.5
2023-05-14T05:56:38.000Z,13.4
2023-05-14T06:00:11.000Z,11.7
2023-05-14T06:03:44.000Z,15.6
2023-05-14T06:07:16.000Z,15.2
2023-05-14T06:10:49.000Z,15.1
2023-05-14T06:13:40.000Z,11.1
2023-05-14T06:17:13.000Z,10.3
2023-05-14T06:20:46.000Z,13.3
2023-05-14T06:24:18.000Z,14.2
2023-05-14T06:27:51.000Z,10.8
2023-05-14T06:31:23.000Z,14.5
2023-05-14T06:34:56.000Z,11.9
2023-05-14T06:38:29.000Z,11.9
2023-05-14T06:42:01.000Z,11.9
2023-05-14T06:45:34.000Z,11
2023-05-14T06:49:07.000Z,10.6
2023-05-14T06:51:58.000Z,10.5
2023-05-14T06:55:31.000Z,9.4
2023-05-14T06:59:03.000Z,10
2023-05-14T07:02:36.000Z,9.9
2023-05-14T07:06:08.000Z,11.6
2023-05-14T07:09:41.000Z,10.2
2023-05-14T07:13:14.000Z,11.4
2023-05-14T07:16:47.000Z,9.9
2023-05-14T07:20:19.000Z,11.1
2023-05-14T07:23:52.000Z,8.7
2023-05-14T07:27:25.000Z,7.8
2023-05-14T07:30:16.000Z,8.3
2023-05-14T07:33:50.000Z,7.4
2023-05-14T07:37:23.000Z,7.2
2023-05-14T07:40:55.000Z,7.7
2023-05-14T07:44:35.000Z,6.9
2023-05-14T07:48:08.000Z,8.4
2023-05-14T07:51:40.000Z,7.8
2023-05-14T07:55:13.000Z,7.3
2023-05-14T07:58:46.000Z,6.5
2023-05-14T08:02:18.000Z,7.4
2023-05-14T08:05:51.000Z,7.4
2023-05-14T08:08:43.000Z,7.9
2023-05-14T08:12:15.000Z,7.8
2023-05-14T08:15:48.000Z,7.7
2023-05-14T08:19:21.000Z,7.6
2023-05-14T08:22:53.000Z,7.4
2023-05-14T08:26:26.000Z,7.7
2023-05-14T08:29:59.000Z,6.9
2023-05-14T08:33:32.000Z,6.2
2023-05-14T08:37:04.000Z,7.2
2023-05-14T08:40:37.000Z,6.3
2023-05-14T08:44:10.000Z,7.2
2023-05-14T08:47:01.000Z,6.9
2023-05-14T08:50:34.000Z,5.7
2023-05-14T08:54:06.000Z,6.2
2023-05-14T08:57:39.000Z,6
2023-05-14T09:01:12.000Z,5.8
2023-05-14T09:04:44.000Z,5.2
2023-05-14T09:08:17.000Z,4.6
2023-05-14T09:11:50.000Z,5.2
2023-05-14T09:15:25.000Z,5
2023-05-14T09:18:57.000Z,4.5
2023-05-14T09:22:30.000Z,4.2
2023-05-14T09:25:21.000Z,4.1
2023-05-14T09:28:54.000Z,4.3
2023-05-14T09:32:27.000Z,3.7
2023-05-14T09:35:59.000Z,4.2
2023-05-14T09:39:32.000Z,3.5
2023-05-14T09:43:05.000Z,3.4
2023-05-14T09:46:37.000Z,3.2
2023-05-14T09:50:10.000Z,3.4
2023-05-14T09:53:43.000Z,3.5
2023-05-14T09:57:15.000Z,3.5
2023-05-14T10:00:48.000Z,3.5
2023-05-14T10:03:39.000Z,3.2
2023-05-14T10:07:12.000Z,3.4
2023-05-14T10:10:45.000Z,3.1
2023-05-14T10:14:17.000Z,3.1
2023-05-14T10:17:50.000Z,3.5
2023-05-14T10:21:23.000Z,3.5
2023-05-14T10:24:56.000Z,3.6
2023-05-14T10:28:28.000Z,3.2
2023-05-14T10:32:01.000Z,2.9
2023-05-14T10:35:33.000Z,3
2023-05-14T10:39:06.000Z,3.6
2023-05-14T10:41:57.000Z,3.2
2023-05-14T10:45:30.000Z,3.1
2023-05-14T10:49:03.000Z,3.3
2023-05-14T10:52:35.000Z,3
2023-05-14T10:56:08.000Z,2.9
2023-05-14T10:59:40.000Z,2.9
2023-05-14T11:03:13.000Z,3.4
2023-05-14T11:06:46.000Z,3.3
2023-05-14T11:10:21.000Z,3.5
2023-05-14T11:13:53.000Z,3.9
2023-05-14T11:17:26.000Z,3
2023-05-14T11:20:18.000Z,3.4
2023-05-14T11:23:51.000Z,3.2
2023-05-14T11:27:23.000Z,2.9
2023-05-14T11:30:56.000Z,3.1
2023-05-14T11:34:29.000Z,2.8
2023-05-14T11:38:01.000Z,2.8
2023-05-14T11:41:34.000Z,2.8
2023-05-14T11:45:07.000Z,3.1
2023-05-14T11:48:39.000Z,3.1
2023-05-14T11:52:12.000Z,3.2
2023-05-14T11:55:45.000Z,3.3
2023-05-14T11:58:36.000Z,2.9
2023-05-14T12:02:08.000Z,2.9
2023-05-14T12:05:41.000Z,2.7
2023-05-14T12:09:14.000Z,3
2023-05-14T12:12:47.000Z,2.6
2023-05-14T12:16:19.000Z,2.9
2023-05-14T12:19:52.000Z,2.9
2023-05-14T12:23:25.000Z,3.3
2023-05-14T12:26:58.000Z,3.7
2023-05-14T12:30:31.000Z,3.8
2023-05-14T12:34:03.000Z,3.6
2023-05-14T12:36:55.000Z,4
2023-05-14T12:40:27.000Z,3.2
2023-05-14T12:44:00.000Z,3.2
2023-05-14T12:47:33.000Z,2.1
2023-05-14T12:51:05.000Z,2.2
2023-05-14T12:54:39.000Z,3.3
2023-05-14T12:58:11.000Z,3.1
2023-05-14T13:01:44.000Z,3.9
2023-05-14T13:05:16.000Z,3.8
2023-05-14T13:08:50.000Z,3.2
2023-05-14T13:12:23.000Z,3.8
2023-05-14T13:15:14.000Z,3.9
2023-05-14T13:18:47.000Z,3.9
2023-05-14T13:22:20.000Z,4
2023-05-14T13:25:53.000Z,4.2
2023-05-14T13:29:25.000Z,3.8
2023-05-14T13:32:58.000Z,3.9
2023-05-14T13:36:31.000Z,3.9
2023-05-14T13:40:03.000Z,3.6
2023-05-14T13:43:36.000Z,3.3
2023-05-14T13:47:09.000Z,3.2
2023-05-14T13:50:42.000Z,2.9
2023-05-14T13:53:33.000Z,2.6
2023-05-14T13:57:05.000Z,2.4
2023-05-14T14:00:38.000Z,2.4
2023-05-14T14:04:11.000Z,2.7
2023-05-14T14:07:43.000Z,3
2023-05-14T14:11:20.000Z,3.7
2023-05-14T14:14:52.000Z,3.1
2023-05-14T14:18:25.000Z,3.1
2023-05-14T14:21:58.000Z,2.7
2023-05-14T14:25:31.000Z,2.5
2023-05-14T14:29:03.000Z,2.1
2023-05-14T14:31:55.000Z,2.1
2023-05-14T14:35:27.000Z,2.2
2023-05-14T14:39:00.000Z,2
2023-05-14T14:42:33.000Z,2.2
2023-05-14T14:46:05.000Z,2
2023-05-14T14:49:38.000Z,2.3
2023-05-14T14:53:11.000Z,2.6
2023-05-14T14:56:44.000Z,2.4
2023-05-14T15:00:16.000Z,2.3
2023-05-14T15:03:49.000Z,2.4
2023-05-14T15:07:22.000Z,2.7
2023-05-14T15:10:13.000Z,2.8
2023-05-14T15:13:46.000Z,2.7
2023-05-14T15:17:19.000Z,2.6
2023-05-14T15:20:51.000Z,2.4
2023-05-14T15:24:24.000Z,2.5
2023-05-14T15:27:57.000Z,2.3
2023-05-14T15:31:30.000Z,2.4
2023-05-14T15:35:03.000Z,2.5
2023-05-14T15:38:35.000Z,2.8
2023-05-14T15:42:08.000Z,2.4
2023-05-14T15:45:41.000Z,2.3
2023-05-14T15:48:32.000Z,2.3
2023-05-14T15:52:05.000Z,2.4
2023-05-14T15:55:38.000Z,2.6
2023-05-14T15:59:10.000Z,2.2
2023-05-14T16:02:43.000Z,2.4
2023-05-14T16:06:16.000Z,2.3
2023-05-14T16:09:49.000Z,2.2
2023-05-14T16:13:21.000Z,2.4
2023-05-14T16:16:54.000Z,2.6
2023-05-14T16:20:27.000Z,2.7
2023-05-14T16:23:59.000Z,2.6
2023-05-14T16:26:51.000Z,2.6
2023-05-14T16:30:23.000Z,2.7
2023-05-14T16:33:56.000Z,2.3
2023-05-14T16:37:29.000Z,2.5
2023-05-14T16:41:06.000Z,2.6
2023-05-14T16:44:39.000Z,2.6
2023-05-14T16:48:12.000Z,2.6
2023-05-14T16:51:45.000Z,3.1
2023-05-14T16:55:17.000Z,2.7
2023-05-14T16:58:50.000Z,2.9
2023-05-14T17:02:23.000Z,2.9
2023-05-14T17:05:14.000Z,3.1
2023-05-14T17:08:48.000Z,3
2023-05-14T17:12:20.000Z,2.8
2023-05-14T17:15:53.000Z,2.9
2023-05-14T17:19:26.000Z,2.9
2023-05-14T17:22:59.000Z,2.8
2023-05-14T17:26:32.000Z,3.1
2023-05-14T17:30:04.000Z,3.1
2023-05-14T17:33:37.000Z,2.8
2023-05-14T17:37:10.000Z,3
2023-05-14T17:40:43.000Z,3.7
2023-05-14T17:43:34.000Z,3.6
2023-05-14T17:47:07.000Z,4
2023-05-14T17:50:39.000Z,4
2023-05-14T17:54:12.000Z,3.7
2023-05-14T17:57:45.000Z,3.7
2023-05-14T18:01:17.000Z,3.7
2023-05-14T18:04:50.000Z,5.6
2023-05-14T18:08:23.000Z,6.7
2023-05-14T18:11:56.000Z,6.6
2023-05-14T18:15:28.000Z,5.2
2023-05-14T18:19:02.000Z,4.2
2023-05-14T18:21:53.000Z,4.1
2023-05-14T18:25:26.000Z,4
2023-05-14T18:28:58.000Z,4.5
2023-05-14T18:32:31.000Z,4.2
2023-05-14T18:36:04.000Z,4.2
2023-05-14T18:39:37.000Z,4.4
2023-05-14T18:43:09.000Z,4.6
2023-05-14T18:46:42.000Z,4.6
2023-05-14T18:50:14.000Z,4.5
2023-05-14T18:53:47.000Z,4.6
2023-05-14T18:57:20.000Z,4.4
2023-05-14T19:00:11.000Z,4.8
2023-05-14T19:03:44.000Z,4.5
2023-05-14T19:07:17.000Z,4.6
2023-05-14T19:10:50.000Z,5.1
2023-05-14T19:14:23.000Z,5.6
2023-05-14T19:17:56.000Z,6.2
2023-05-14T19:21:28.000Z,6.5
2023-05-14T19:25:01.000Z,5.9
2023-05-14T19:28:34.000Z,5.7
2023-05-14T19:32:06.000Z,5.9
2023-05-14T19:35:39.000Z,5.8
2023-05-14T19:38:30.000Z,6.2
2023-05-14T19:42:03.000Z,5.8
2023-05-14T19:45:35.000Z,5.9
2023-05-14T19:49:08.000Z,5.3
2023-05-14T19:52:41.000Z,5.9
2023-05-14T19:56:13.000Z,6.2
2023-05-14T19:59:46.000Z,6.4
2023-05-14T20:03:19.000Z,6.1
2023-05-14T20:06:52.000Z,6.2
2023-05-14T20:10:24.000Z,6.3
2023-05-14T20:13:57.000Z,6.5
2023-05-14T20:16:48.000Z,6.2
2023-05-14T20:20:21.000Z,6.2
2023-05-14T20:23:58.000Z,6.8
2023-05-14T20:27:31.000Z,6.5
2023-05-14T20:31:04.000Z,6.8
2023-05-14T20:34:36.000Z,6.5
2023-05-14T20:38:09.000Z,6.8
2023-05-14T20:41:42.000Z,6.6
2023-05-14T20:45:15.000Z,6.3
2023-05-14T20:48:48.000Z,6.9
2023-05-14T20:52:21.000Z,7.7
2023-05-14T20:55:12.000Z,7.1
2023-05-14T20:58:45.000Z,6.9
2023-05-14T21:02:18.000Z,8.6
2023-05-14T21:05:51.000Z,8.7
2023-05-14T21:09:25.000Z,7.4
2023-05-14T21:12:58.000Z,7.1
2023-05-14T21:16:31.000Z,7
2023-05-14T21:20:03.000Z,6.9
2023-05-14T21:23:36.000Z,6.5
2023-05-14T21:27:09.000Z,7.6
2023-05-14T21:30:41.000Z,7
2023-05-14T21:33:33.000Z,6.4
2023-05-14T21:37:06.000Z,7
2023-05-14T21:40:38.000Z,7.1
2023-05-14T21:44:11.000Z,6.9
2023-05-14T21:47:43.000Z,6.7
2023-05-14T21:51:16.000Z,7
2023-05-14T21:54:49.000Z,7.1
2023-05-14T21:58:22.000Z,7.4
2023-05-14T22:05:30.000Z,6.8
2023-05-14T22:09:03.000Z,6.8
2023-05-14T22:11:54.000Z,7.1
2023-05-14T22:15:27.000Z,6.6
2023-05-14T22:19:00.000Z,6.7
2023-05-14T22:22:33.000Z,6.7
2023-05-14T22:26:05.000Z,6.3
2023-05-14T22:29:38.000Z,7.3
2023-05-14T22:33:11.000Z,7.1
2023-05-14T22:36:43.000Z,7.4
2023-05-14T22:40:16.000Z,7
2023-05-14T22:43:49.000Z,6.9
2023-05-14T22:47:22.000Z,6.6
2023-05-14T22:50:13.000Z,6.5
2023-05-14T22:53:46.000Z,7
2023-05-14T22:57:18.000Z,7.3
2023-05-14T23:00:51.000Z,8
2023-05-14T23:04:24.000Z,7.2
2023-05-14T23:07:56.000Z,6.9
2023-05-14T23:11:29.000Z,7
2023-05-14T23:15:02.000Z,7.3
2023-05-14T23:18:34.000Z,6.9
2023-05-14T23:22:07.000Z,7.2
2023-05-14T23:25:40.000Z,6.6
2023-05-14T23:28:31.000Z,6.7
2023-05-14T23:32:04.000Z,7.5
2023-05-14T23:35:36.000Z,7.2
2023-05-14T23:39:09.000Z,7.2
2023-05-14T23:42:42.000Z,7.9
2023-05-14T23:46:14.000Z,7.4
2023-05-14T23:49:47.000Z,7.6
2023-05-14T23:53:20.000Z,7.7
2023-05-14T23:56:52.000Z,8.2
